createdAt,value
2017-12-29T00:00:20.941Z,969.96
2017-12-29T00:01:20.971Z,969.88
2017-12-29T00:02:20.940Z,969.91
2017-12-29T00:03:20.933Z,969.90
2017-12-29T00:04:20.913Z,969.90
2017-12-29T00:05:20.912Z,969.89
2017-12-29T00:06:20.889Z,969.88
2017-12-29T00:07:20.895Z,969.91
2017-12-29T00:08:20.882Z,969.82
2017-12-29T00:09:20.876Z,969.86
2017-12-29T00:10:20.938Z,969.91
2017-12-29T00:11:20.861Z,969.95
2017-12-29T00:12:20.841Z,969.89
2017-12-29T00:13:20.846Z,969.86
2017-12-29T00:14:20.837Z,969.88
2017-12-29T00:15:20.824Z,969.87
2017-12-29T00:16:20.818Z,969.93
2017-12-29T00:17:20.810Z,969.91
2017-12-29T00:18:20.795Z,969.85
2017-12-29T00:19:20.790Z,969.78
2017-12-29T00:20:20.784Z,969.81
2017-12-29T00:21:20.775Z,969.91
2017-12-29T00:22:20.765Z,969.91
2017-12-29T00:23:20.760Z,969.91
2017-12-29T00:24:20.749Z,969.98
2017-12-29T00:25:20.755Z,969.88
2017-12-29T00:26:20.731Z,969.88
2017-12-29T00:27:20.722Z,969.90
2017-12-29T00:28:20.701Z,969.90
2017-12-29T00:29:20.707Z,969.91
2017-12-29T00:30:20.686Z,969.90
2017-12-29T00:31:20.677Z,969.88
2017-12-29T00:32:20.666Z,969.88
2017-12-29T00:33:20.657Z,969.85
2017-12-29T00:34:20.656Z,969.95
2017-12-29T00:35:20.650Z,969.97
2017-12-29T00:36:20.644Z,969.96
2017-12-29T00:37:20.628Z,969.98
2017-12-29T00:38:20.620Z,969.98
2017-12-29T00:39:20.608Z,969.95
2017-12-29T00:40:20.605Z,969.98
2017-12-29T00:41:20.601Z,970.01
2017-12-29T00:42:20.586Z,970.02
2017-12-29T00:43:20.567Z,970.07
2017-12-29T00:44:20.555Z,970.09
2017-12-29T00:45:20.557Z,970.11
2017-12-29T00:46:20.543Z,970.15
2017-12-29T00:47:20.538Z,970.16
2017-12-29T00:48:20.558Z,970.18
2017-12-29T00:49:20.518Z,970.13
2017-12-29T00:50:20.503Z,970.22
2017-12-29T00:51:20.492Z,970.18
2017-12-29T00:52:20.486Z,970.22
2017-12-29T00:53:20.488Z,970.24
2017-12-29T00:54:20.474Z,970.25
2017-12-29T00:55:20.460Z,970.28
2017-12-29T00:56:20.450Z,970.27
2017-12-29T00:57:20.443Z,970.29
2017-12-29T00:58:20.430Z,970.34
2017-12-29T00:59:20.419Z,970.34
2017-12-29T01:00:20.549Z,970.29
2017-12-29T01:01:20.405Z,970.32
2017-12-29T01:02:20.393Z,970.29
2017-12-29T01:03:20.476Z,970.32
2017-12-29T01:04:20.378Z,970.32
2017-12-29T01:05:20.372Z,970.31
2017-12-29T01:06:20.486Z,970.38
2017-12-29T01:07:20.392Z,970.34
2017-12-29T01:08:20.340Z,970.36
2017-12-29T01:09:20.333Z,970.39
2017-12-29T01:10:20.325Z,970.41
2017-12-29T01:11:20.329Z,970.40
2017-12-29T01:12:20.624Z,970.39
2017-12-29T01:13:20.310Z,970.41
2017-12-29T01:14:20.291Z,970.44
2017-12-29T01:15:20.280Z,970.46
2017-12-29T01:16:20.447Z,970.47
2017-12-29T01:17:20.265Z,970.49
2017-12-29T01:18:20.255Z,970.49
2017-12-29T01:19:20.240Z,970.54
2017-12-29T01:20:20.243Z,970.51
2017-12-29T01:21:20.226Z,970.56
2017-12-29T01:22:20.217Z,970.56
2017-12-29T01:23:20.227Z,970.61
2017-12-29T01:24:20.217Z,970.59
2017-12-29T01:25:20.184Z,970.61
2017-12-29T01:26:20.176Z,970.65
2017-12-29T01:27:20.173Z,970.67
2017-12-29T01:28:20.162Z,970.69
2017-12-29T01:29:20.159Z,970.72
2017-12-29T01:30:20.155Z,970.71
2017-12-29T01:31:20.137Z,970.70
2017-12-29T01:32:20.123Z,970.75
2017-12-29T01:33:20.110Z,970.69
2017-12-29T01:34:20.110Z,970.68
2017-12-29T01:35:20.096Z,970.70
2017-12-29T01:36:20.090Z,970.73
2017-12-29T01:37:20.080Z,970.68
2017-12-29T01:38:20.070Z,970.64
2017-12-29T01:39:20.069Z,970.67
2017-12-29T01:40:20.051Z,970.71
2017-12-29T01:41:20.044Z,970.71
2017-12-29T01:42:20.047Z,970.73
2017-12-29T01:43:20.024Z,970.70
2017-12-29T01:44:20.016Z,970.69
2017-12-29T01:45:20.010Z,970.75
2017-12-29T01:46:19.998Z,970.73
2017-12-29T01:47:19.985Z,970.69
2017-12-29T01:48:19.977Z,970.72
2017-12-29T01:49:19.971Z,970.81
2017-12-29T01:50:19.960Z,970.76
2017-12-29T01:51:19.943Z,970.80
2017-12-29T01:52:19.942Z,970.76
2017-12-29T01:53:19.932Z,970.82
2017-12-29T01:54:19.925Z,970.80
2017-12-29T01:55:19.912Z,970.76
2017-12-29T01:56:19.906Z,970.86
2017-12-29T01:57:19.895Z,970.80
2017-12-29T01:58:19.889Z,970.79
2017-12-29T01:59:19.880Z,970.80
2017-12-29T02:00:19.866Z,970.81
2017-12-29T02:01:19.855Z,970.81
2017-12-29T02:02:19.853Z,970.89
2017-12-29T02:03:19.843Z,970.91
2017-12-29T02:04:19.824Z,970.85
2017-12-29T02:05:19.822Z,970.91
2017-12-29T02:06:19.814Z,970.90
2017-12-29T02:07:19.804Z,970.92
2017-12-29T02:08:19.813Z,970.89
2017-12-29T02:09:19.785Z,970.89
2017-12-29T02:10:19.774Z,970.95
2017-12-29T02:11:19.771Z,970.98
2017-12-29T02:12:19.758Z,970.94
2017-12-29T02:13:19.748Z,971.00
2017-12-29T02:14:19.741Z,970.98
2017-12-29T02:15:19.727Z,970.99
2017-12-29T02:16:19.719Z,971.01
2017-12-29T02:17:19.714Z,970.95
2017-12-29T02:18:19.699Z,970.98
2017-12-29T02:19:19.695Z,970.95
2017-12-29T02:20:19.689Z,970.96
2017-12-29T02:21:19.679Z,970.94
2017-12-29T02:22:19.664Z,970.97
2017-12-29T02:23:19.656Z,970.96
2017-12-29T02:24:19.649Z,970.98
2017-12-29T02:25:19.644Z,970.93
2017-12-29T02:26:19.629Z,971.02
2017-12-29T02:27:19.619Z,971.02
2017-12-29T02:28:19.605Z,971.02
2017-12-29T02:29:19.599Z,971.00
2017-12-29T02:30:19.601Z,971.00
2017-12-29T02:31:19.584Z,971.01
2017-12-29T02:32:19.571Z,971.06
2017-12-29T02:33:19.565Z,971.09
2017-12-29T02:34:19.555Z,971.09
2017-12-29T02:35:19.542Z,971.07
2017-12-29T02:36:19.537Z,971.11
2017-12-29T02:37:19.528Z,971.09
2017-12-29T02:38:19.517Z,971.17
2017-12-29T02:39:19.511Z,971.20
2017-12-29T02:40:19.504Z,971.20
2017-12-29T02:41:19.486Z,971.21
2017-12-29T02:42:19.478Z,971.27
2017-12-29T02:43:19.466Z,971.33
2017-12-29T02:44:19.465Z,971.35
2017-12-29T02:45:19.459Z,971.31
2017-12-29T02:46:19.445Z,971.33
2017-12-29T02:47:19.437Z,971.27
2017-12-29T02:48:19.421Z,971.32
2017-12-29T02:49:19.414Z,971.33
2017-12-29T02:50:19.408Z,971.36
2017-12-29T02:51:19.399Z,971.34
2017-12-29T02:52:19.388Z,971.40
2017-12-29T02:53:19.382Z,971.37
2017-12-29T02:54:19.373Z,971.37
2017-12-29T02:55:19.359Z,971.41
2017-12-29T02:56:19.349Z,971.39
2017-12-29T02:57:19.342Z,971.44
2017-12-29T02:58:19.332Z,971.43
2017-12-29T02:59:19.324Z,971.49
2017-12-29T03:00:19.312Z,971.43
2017-12-29T03:01:19.304Z,971.42
2017-12-29T03:02:19.296Z,971.48
2017-12-29T03:03:19.287Z,971.48
2017-12-29T03:04:19.282Z,971.49
2017-12-29T03:05:19.270Z,971.54
2017-12-29T03:06:19.260Z,971.50
2017-12-29T03:07:19.251Z,971.55
2017-12-29T03:08:19.242Z,971.55
2017-12-29T03:09:19.231Z,971.55
2017-12-29T03:10:19.225Z,971.54
2017-12-29T03:11:19.215Z,971.49
2017-12-29T03:12:19.206Z,971.55
2017-12-29T03:13:19.195Z,971.51
2017-12-29T03:14:19.194Z,971.54
2017-12-29T03:15:19.178Z,971.49
2017-12-29T03:16:19.170Z,971.42
2017-12-29T03:17:19.161Z,971.45
2017-12-29T03:18:19.174Z,971.46
2017-12-29T03:19:19.148Z,971.51
2017-12-29T03:20:19.141Z,971.55
2017-12-29T03:21:19.124Z,971.52
2017-12-29T03:22:19.118Z,971.54
2017-12-29T03:23:19.108Z,971.56
2017-12-29T03:24:19.104Z,971.58
2017-12-29T03:25:19.091Z,971.61
2017-12-29T03:26:19.081Z,971.57
2017-12-29T03:27:19.070Z,971.61
2017-12-29T03:28:19.061Z,971.64
2017-12-29T03:29:19.054Z,971.67
2017-12-29T03:30:19.046Z,971.68
2017-12-29T03:31:19.038Z,971.71
2017-12-29T03:32:19.027Z,971.71
2017-12-29T03:33:19.017Z,971.62
2017-12-29T03:34:19.012Z,971.67
2017-12-29T03:35:18.999Z,971.62
2017-12-29T03:36:18.993Z,971.67
2017-12-29T03:37:18.984Z,971.72
2017-12-29T03:38:18.977Z,971.75
2017-12-29T03:39:18.959Z,971.73
2017-12-29T03:40:18.956Z,971.77
2017-12-29T03:41:18.949Z,971.78
2017-12-29T03:42:18.939Z,971.73
2017-12-29T03:43:18.929Z,971.76
2017-12-29T03:44:18.922Z,971.76
2017-12-29T03:45:18.911Z,971.83
2017-12-29T03:46:18.902Z,971.71
2017-12-29T03:47:18.895Z,971.75
2017-12-29T03:48:18.886Z,971.70
2017-12-29T03:49:18.883Z,971.75
2017-12-29T03:50:18.868Z,971.72
2017-12-29T03:51:18.859Z,971.71
2017-12-29T03:52:18.851Z,971.80
2017-12-29T03:53:18.840Z,971.77
2017-12-29T03:54:18.837Z,971.79
2017-12-29T03:55:18.826Z,971.79
2017-12-29T03:56:18.815Z,971.86
2017-12-29T03:57:18.809Z,971.86
2017-12-29T03:58:18.796Z,971.84
2017-12-29T03:59:18.790Z,971.91
2017-12-29T04:00:18.783Z,971.90
2017-12-29T04:01:18.778Z,971.91
2017-12-29T04:02:18.764Z,971.95
2017-12-29T04:03:18.758Z,971.99
2017-12-29T04:04:18.748Z,972.04
2017-12-29T04:05:18.734Z,972.02
2017-12-29T04:06:18.735Z,971.94
2017-12-29T04:07:18.719Z,971.97
2017-12-29T04:08:18.710Z,971.88
2017-12-29T04:09:18.702Z,971.92
2017-12-29T04:10:18.698Z,971.94
2017-12-29T04:11:18.684Z,971.92
2017-12-29T04:12:18.675Z,971.92
2017-12-29T04:13:18.667Z,971.92
2017-12-29T04:14:18.658Z,971.99
2017-12-29T04:15:18.648Z,971.97
2017-12-29T04:16:18.642Z,971.95
2017-12-29T04:17:18.633Z,971.99
2017-12-29T04:18:18.622Z,971.99
2017-12-29T04:19:18.618Z,972.00
2017-12-29T04:20:18.605Z,971.99
2017-12-29T04:21:18.598Z,972.01
2017-12-29T04:22:18.590Z,972.06
2017-12-29T04:23:18.580Z,972.01
2017-12-29T04:24:18.571Z,972.03
2017-12-29T04:25:18.563Z,972.05
2017-12-29T04:26:18.550Z,972.06
2017-12-29T04:27:18.544Z,972.08
2017-12-29T04:28:18.539Z,972.07
2017-12-29T04:29:18.527Z,972.08
2017-12-29T04:30:18.522Z,972.05
2017-12-29T04:31:18.507Z,972.08
2017-12-29T04:32:18.500Z,972.04
2017-12-29T04:33:18.493Z,972.03
2017-12-29T04:34:18.495Z,972.05
2017-12-29T04:35:18.475Z,972.04
2017-12-29T04:36:18.467Z,972.07
2017-12-29T04:37:18.461Z,972.09
2017-12-29T04:38:18.454Z,972.07
2017-12-29T04:39:18.451Z,972.11
2017-12-29T04:40:18.434Z,972.15
2017-12-29T04:41:18.424Z,972.14
2017-12-29T04:42:18.416Z,972.14
2017-12-29T04:43:18.409Z,972.14
2017-12-29T04:44:18.399Z,972.10
2017-12-29T04:45:18.391Z,972.10
2017-12-29T04:46:18.383Z,972.13
2017-12-29T04:47:18.371Z,972.13
2017-12-29T04:48:18.367Z,972.13
2017-12-29T04:49:18.357Z,972.16
2017-12-29T04:50:18.353Z,972.16
2017-12-29T04:51:18.337Z,972.21
2017-12-29T04:52:18.329Z,972.24
2017-12-29T04:53:18.317Z,972.29
2017-12-29T04:54:18.313Z,972.24
2017-12-29T04:55:18.304Z,972.35
2017-12-29T04:56:18.297Z,972.27
2017-12-29T04:57:18.287Z,972.29
2017-12-29T04:58:18.279Z,972.32
2017-12-29T04:59:18.271Z,972.27
2017-12-29T05:00:18.262Z,972.30
2017-12-29T05:01:18.248Z,972.25
2017-12-29T05:02:18.247Z,972.30
2017-12-29T05:03:18.232Z,972.27
2017-12-29T05:04:18.229Z,972.31
2017-12-29T05:05:18.221Z,972.29
2017-12-29T05:06:18.210Z,972.30
2017-12-29T05:07:18.204Z,972.32
2017-12-29T05:08:18.194Z,972.36
2017-12-29T05:09:18.181Z,972.30
2017-12-29T05:10:18.177Z,972.35
2017-12-29T05:11:18.160Z,972.30
2017-12-29T05:12:18.159Z,972.32
2017-12-29T05:13:18.159Z,972.35
2017-12-29T05:14:18.139Z,972.33
2017-12-29T05:15:18.144Z,972.34
2017-12-29T05:16:18.128Z,972.38
2017-12-29T05:17:18.114Z,972.38
2017-12-29T05:18:18.113Z,972.45
2017-12-29T05:19:18.097Z,972.48
2017-12-29T05:20:18.093Z,972.47
2017-12-29T05:21:18.083Z,972.44
2017-12-29T05:22:18.073Z,972.45
2017-12-29T05:23:18.064Z,972.53
2017-12-29T05:24:18.052Z,972.49
2017-12-29T05:25:18.048Z,972.52
2017-12-29T05:26:18.038Z,972.52
2017-12-29T05:27:18.043Z,972.46
2017-12-29T05:28:18.017Z,972.53
2017-12-29T05:29:18.020Z,972.49
2017-12-29T05:30:18.005Z,972.51
2017-12-29T05:31:17.994Z,972.50
2017-12-29T05:32:17.987Z,972.52
2017-12-29T05:33:17.977Z,972.47
2017-12-29T05:34:17.969Z,972.48
2017-12-29T05:35:17.961Z,972.50
2017-12-29T05:36:17.958Z,972.47
2017-12-29T05:37:17.948Z,972.46
2017-12-29T05:38:17.941Z,972.48
2017-12-29T05:39:17.933Z,972.46
2017-12-29T05:40:17.917Z,972.42
2017-12-29T05:41:17.917Z,972.48
2017-12-29T05:42:17.905Z,972.50
2017-12-29T05:43:17.891Z,972.46
2017-12-29T05:44:17.886Z,972.47
2017-12-29T05:45:17.878Z,972.47
2017-12-29T05:46:17.868Z,972.53
2017-12-29T05:47:17.860Z,972.47
2017-12-29T05:48:17.852Z,972.48
2017-12-29T05:49:17.844Z,972.47
2017-12-29T05:50:17.832Z,972.44
2017-12-29T05:51:17.826Z,972.45
2017-12-29T05:52:17.827Z,972.52
2017-12-29T05:53:17.808Z,972.54
2017-12-29T05:54:17.802Z,972.54
2017-12-29T05:55:17.795Z,972.44
2017-12-29T05:56:17.784Z,972.52
2017-12-29T05:57:17.775Z,972.54
2017-12-29T05:58:17.766Z,972.54
2017-12-29T05:59:17.759Z,972.57
2017-12-29T06:00:17.749Z,972.52
2017-12-29T06:01:17.740Z,972.49
2017-12-29T06:02:17.734Z,972.48
2017-12-29T06:03:17.722Z,972.52
2017-12-29T06:04:17.714Z,972.50
2017-12-29T06:05:17.755Z,972.54
2017-12-29T06:06:17.700Z,972.59
2017-12-29T06:07:17.690Z,972.54
2017-12-29T06:08:17.679Z,972.53
2017-12-29T06:09:17.675Z,972.61
2017-12-29T06:10:17.666Z,972.50
2017-12-29T06:11:17.655Z,972.54
2017-12-29T06:12:17.651Z,972.47
2017-12-29T06:13:17.638Z,972.51
2017-12-29T06:14:17.633Z,972.50
2017-12-29T06:15:17.622Z,972.56
2017-12-29T06:16:17.615Z,972.57
2017-12-29T06:17:17.601Z,972.59
2017-12-29T06:18:17.599Z,972.55
2017-12-29T06:19:17.584Z,972.55
2017-12-29T06:20:17.580Z,972.58
2017-12-29T06:21:17.572Z,972.59
2017-12-29T06:22:17.562Z,972.59
2017-12-29T06:23:17.556Z,972.54
2017-12-29T06:24:17.544Z,972.58
2017-12-29T06:25:17.542Z,972.53
2017-12-29T06:26:17.528Z,972.55
2017-12-29T06:27:17.520Z,972.62
2017-12-29T06:28:17.511Z,972.61
2017-12-29T06:29:17.501Z,972.62
2017-12-29T06:30:17.495Z,972.62
2017-12-29T06:31:17.487Z,972.63
2017-12-29T06:32:17.480Z,972.67
2017-12-29T06:33:17.479Z,972.60
2017-12-29T06:34:17.461Z,972.62
2017-12-29T06:35:17.453Z,972.62
2017-12-29T06:36:17.447Z,972.60
2017-12-29T06:37:17.441Z,972.60
2017-12-29T06:38:17.426Z,972.57
2017-12-29T06:39:17.418Z,972.59
2017-12-29T06:40:17.409Z,972.65
2017-12-29T06:41:17.402Z,972.70
2017-12-29T06:42:17.390Z,972.70
2017-12-29T06:43:17.394Z,972.73
2017-12-29T06:44:17.373Z,972.69
2017-12-29T06:45:17.372Z,972.74
2017-12-29T06:46:17.361Z,972.76
2017-12-29T06:47:17.350Z,972.77
2017-12-29T06:48:17.343Z,972.88
2017-12-29T06:49:17.336Z,972.83
2017-12-29T06:50:17.327Z,972.88
2017-12-29T06:51:17.317Z,972.90
2017-12-29T06:52:17.311Z,972.96
2017-12-29T06:53:17.303Z,972.98
2017-12-29T06:54:17.292Z,972.99
2017-12-29T06:55:17.284Z,972.95
2017-12-29T06:56:17.274Z,972.97
2017-12-29T06:57:17.267Z,972.94
2017-12-29T06:58:17.266Z,972.96
2017-12-29T06:59:17.252Z,972.97
2017-12-29T07:00:17.263Z,972.97
2017-12-29T07:01:17.239Z,972.94
2017-12-29T07:02:17.236Z,972.95
2017-12-29T07:03:17.211Z,973.01
2017-12-29T07:04:17.205Z,972.95
2017-12-29T07:05:17.216Z,973.00
2017-12-29T07:06:17.192Z,972.92
2017-12-29T07:07:17.184Z,972.92
2017-12-29T07:08:17.176Z,972.94
2017-12-29T07:09:17.169Z,972.92
2017-12-29T07:10:17.157Z,972.99
2017-12-29T07:11:17.151Z,972.95
2017-12-29T07:12:17.142Z,973.01
2017-12-29T07:13:17.137Z,973.01
2017-12-29T07:14:17.126Z,973.01
2017-12-29T07:15:17.112Z,973.04
2017-12-29T07:16:17.109Z,973.04
2017-12-29T07:17:17.101Z,973.05
2017-12-29T07:18:17.094Z,973.07
2017-12-29T07:19:17.086Z,973.12
2017-12-29T07:20:17.075Z,973.12
2017-12-29T07:21:17.068Z,973.17
2017-12-29T07:22:17.060Z,973.15
2017-12-29T07:23:17.050Z,973.10
2017-12-29T07:24:17.040Z,973.11
2017-12-29T07:25:17.036Z,973.12
2017-12-29T07:26:17.026Z,973.15
2017-12-29T07:27:17.019Z,973.12
2017-12-29T07:28:17.011Z,973.14
2017-12-29T07:29:17.002Z,973.16
2017-12-29T07:30:16.992Z,973.07
2017-12-29T07:31:16.984Z,973.14
2017-12-29T07:32:16.980Z,973.11
2017-12-29T07:33:16.969Z,973.15
2017-12-29T07:34:16.961Z,973.12
2017-12-29T07:35:17.717Z,973.11
2017-12-29T07:36:16.948Z,973.17
2017-12-29T07:37:16.935Z,973.19
2017-12-29T07:38:16.927Z,973.19
2017-12-29T07:39:16.919Z,973.16
2017-12-29T07:40:16.911Z,973.19
2017-12-29T07:41:16.901Z,973.19
2017-12-29T07:42:16.895Z,973.21
2017-12-29T07:43:16.886Z,973.17
2017-12-29T07:44:16.875Z,973.19
2017-12-29T07:45:16.869Z,973.14
2017-12-29T07:46:16.862Z,973.18
2017-12-29T07:47:16.853Z,973.21
2017-12-29T07:48:16.849Z,973.24
2017-12-29T07:49:16.836Z,973.24
2017-12-29T07:50:16.832Z,973.27
2017-12-29T07:51:16.820Z,973.24
2017-12-29T07:52:16.813Z,973.19
2017-12-29T07:53:16.805Z,973.24
2017-12-29T07:54:16.797Z,973.19
2017-12-29T07:55:16.800Z,973.18
2017-12-29T07:56:16.780Z,973.17
2017-12-29T07:57:16.772Z,973.23
2017-12-29T07:58:16.767Z,973.31
2017-12-29T07:59:16.755Z,973.27
2017-12-29T08:00:16.746Z,973.26
2017-12-29T08:01:16.738Z,973.28
2017-12-29T08:02:16.732Z,973.30
2017-12-29T08:03:16.721Z,973.25
2017-12-29T08:04:16.718Z,973.32
2017-12-29T08:05:16.707Z,973.28
2017-12-29T08:06:16.699Z,973.33
2017-12-29T08:07:16.689Z,973.36
2017-12-29T08:08:16.682Z,973.34
2017-12-29T08:09:16.674Z,973.37
2017-12-29T08:10:16.665Z,973.30
2017-12-29T08:11:16.656Z,973.39
2017-12-29T08:12:16.648Z,973.39
2017-12-29T08:13:16.643Z,973.34
2017-12-29T08:14:16.632Z,973.39
2017-12-29T08:15:16.625Z,973.45
2017-12-29T08:16:16.617Z,973.38
2017-12-29T08:17:16.606Z,973.43
2017-12-29T08:18:16.602Z,973.43
2017-12-29T08:19:16.590Z,973.40
2017-12-29T08:20:16.582Z,973.44
2017-12-29T08:21:16.577Z,973.46
2017-12-29T08:22:16.566Z,973.46
2017-12-29T08:23:16.560Z,973.45
2017-12-29T08:24:16.553Z,973.54
2017-12-29T08:25:16.545Z,973.49
2017-12-29T08:26:16.546Z,973.48
2017-12-29T08:27:16.530Z,973.51
2017-12-29T08:28:16.519Z,973.54
2017-12-29T08:29:16.512Z,973.55
2017-12-29T08:30:16.505Z,973.51
2017-12-29T08:31:16.496Z,973.51
2017-12-29T08:32:16.488Z,973.50
2017-12-29T08:33:16.474Z,973.55
2017-12-29T08:34:16.496Z,973.55
2017-12-29T08:35:16.462Z,973.57
2017-12-29T08:36:16.458Z,973.53
2017-12-29T08:37:16.451Z,973.53
2017-12-29T08:38:16.454Z,973.56
2017-12-29T08:39:16.428Z,973.57
2017-12-29T08:40:16.423Z,973.54
2017-12-29T08:41:16.426Z,973.49
2017-12-29T08:42:16.408Z,973.53
2017-12-29T08:43:16.399Z,973.58
2017-12-29T08:44:16.392Z,973.55
2017-12-29T08:45:16.389Z,973.57
2017-12-29T08:46:16.384Z,973.43
2017-12-29T08:47:16.376Z,973.50
2017-12-29T08:48:16.358Z,973.54
2017-12-29T08:49:16.354Z,973.61
2017-12-29T08:50:16.346Z,973.65
2017-12-29T08:51:16.333Z,973.72
2017-12-29T08:52:16.332Z,973.67
2017-12-29T08:53:16.319Z,973.64
2017-12-29T08:54:16.313Z,973.62
2017-12-29T08:55:16.306Z,973.65
2017-12-29T08:56:16.299Z,973.71
2017-12-29T08:57:16.289Z,973.70
2017-12-29T08:58:16.285Z,973.71
2017-12-29T08:59:16.273Z,973.71
2017-12-29T09:00:16.263Z,973.73
2017-12-29T09:01:16.258Z,973.76
2017-12-29T09:02:16.252Z,973.78
2017-12-29T09:03:16.243Z,973.75
2017-12-29T09:04:16.232Z,973.76
2017-12-29T09:05:16.229Z,973.83
2017-12-29T09:06:16.221Z,973.77
2017-12-29T09:07:16.212Z,973.81
2017-12-29T09:08:16.203Z,973.90
2017-12-29T09:09:16.199Z,973.89
2017-12-29T09:10:16.191Z,973.88
2017-12-29T09:11:16.182Z,973.85
2017-12-29T09:12:16.178Z,973.94
2017-12-29T09:13:16.166Z,973.89
2017-12-29T09:14:16.157Z,973.98
2017-12-29T09:15:16.148Z,973.92
2017-12-29T09:16:16.140Z,973.91
2017-12-29T09:17:16.140Z,973.89
2017-12-29T09:18:16.147Z,973.92
2017-12-29T09:19:16.120Z,973.89
2017-12-29T09:20:16.112Z,973.93
2017-12-29T09:21:16.110Z,974.01
2017-12-29T09:22:16.094Z,973.95
2017-12-29T09:23:16.085Z,973.97
2017-12-29T09:24:16.079Z,973.99
2017-12-29T09:25:16.070Z,974.01
2017-12-29T09:26:16.067Z,974.02
2017-12-29T09:27:16.049Z,973.94
2017-12-29T09:28:16.050Z,973.96
2017-12-29T09:29:16.044Z,974.00
2017-12-29T09:30:16.032Z,973.92
2017-12-29T09:31:16.040Z,973.98
2017-12-29T09:32:16.020Z,973.90
2017-12-29T09:33:16.008Z,973.93
2017-12-29T09:34:16.003Z,973.96
2017-12-29T09:35:15.995Z,973.96
2017-12-29T09:36:15.984Z,973.83
2017-12-29T09:37:15.979Z,973.97
2017-12-29T09:38:15.971Z,973.88
2017-12-29T09:39:15.965Z,973.88
2017-12-29T09:40:15.953Z,973.92
2017-12-29T09:41:15.946Z,973.94
2017-12-29T09:42:15.939Z,973.94
2017-12-29T09:43:15.931Z,973.95
2017-12-29T09:44:15.926Z,973.95
2017-12-29T09:45:15.926Z,974.00
2017-12-29T09:46:15.915Z,973.93
2017-12-29T09:47:15.901Z,973.96
2017-12-29T09:48:15.917Z,974.00
2017-12-29T09:49:15.879Z,973.95
2017-12-29T09:50:15.878Z,973.97
2017-12-29T09:51:15.883Z,973.94
2017-12-29T09:52:15.864Z,973.90
2017-12-29T09:53:15.856Z,973.92
2017-12-29T09:54:15.850Z,973.83
2017-12-29T09:55:15.858Z,973.79
2017-12-29T09:56:15.833Z,973.82
2017-12-29T09:57:15.851Z,973.73
2017-12-29T09:58:15.817Z,973.81
2017-12-29T09:59:15.809Z,973.78
2017-12-29T10:00:15.803Z,973.78
2017-12-29T10:01:15.798Z,973.78
2017-12-29T10:02:15.790Z,973.83
2017-12-29T10:03:15.783Z,973.80
2017-12-29T10:04:15.778Z,973.78
2017-12-29T10:05:15.769Z,973.75
2017-12-29T10:06:15.773Z,973.74
2017-12-29T10:07:15.759Z,973.73
2017-12-29T10:08:15.748Z,973.79
2017-12-29T10:09:15.750Z,973.79
2017-12-29T10:10:15.731Z,973.75
2017-12-29T10:11:15.722Z,973.73
2017-12-29T10:12:15.716Z,973.84
2017-12-29T10:13:15.702Z,973.78
2017-12-29T10:14:15.700Z,973.81
2017-12-29T10:15:15.693Z,973.83
2017-12-29T10:16:15.685Z,973.79
2017-12-29T10:17:15.678Z,973.72
2017-12-29T10:18:15.668Z,973.76
2017-12-29T10:19:15.660Z,973.64
2017-12-29T10:20:15.657Z,973.72
2017-12-29T10:21:15.654Z,973.72
2017-12-29T10:22:15.649Z,973.65
2017-12-29T10:23:15.634Z,973.70
2017-12-29T10:24:15.630Z,973.69
2017-12-29T10:25:15.622Z,973.69
2017-12-29T10:26:15.617Z,973.65
2017-12-29T10:27:15.605Z,973.62
2017-12-29T10:28:15.599Z,973.63
2017-12-29T10:29:15.595Z,973.62
2017-12-29T10:30:15.589Z,973.62
2017-12-29T10:31:15.579Z,973.60
2017-12-29T10:32:15.570Z,973.61
2017-12-29T10:33:15.563Z,973.58
2017-12-29T10:34:15.564Z,973.59
2017-12-29T10:35:15.639Z,973.58
2017-12-29T10:36:15.545Z,973.60
2017-12-29T10:37:15.545Z,973.57
2017-12-29T10:38:15.528Z,973.59
2017-12-29T10:39:15.525Z,973.54
2017-12-29T10:40:15.528Z,973.57
2017-12-29T10:41:15.502Z,973.55
2017-12-29T10:42:15.501Z,973.56
2017-12-29T10:43:15.500Z,973.56
2017-12-29T10:44:15.485Z,973.58
2017-12-29T10:45:15.482Z,973.62
2017-12-29T10:46:15.474Z,973.58
2017-12-29T10:47:15.464Z,973.56
2017-12-29T10:48:15.457Z,973.61
2017-12-29T10:49:15.457Z,973.58
2017-12-29T10:50:15.445Z,973.59
2017-12-29T10:51:15.440Z,973.63
2017-12-29T10:52:15.432Z,973.59
2017-12-29T10:53:15.425Z,973.63
2017-12-29T10:54:15.427Z,973.60
2017-12-29T10:55:15.413Z,973.56
2017-12-29T10:56:15.418Z,973.60
2017-12-29T10:57:15.397Z,973.57
2017-12-29T10:58:15.428Z,973.54
2017-12-29T10:59:15.387Z,973.57
2017-12-29T11:00:15.386Z,973.56
2017-12-29T11:01:15.370Z,973.50
2017-12-29T11:02:15.362Z,973.61
2017-12-29T11:03:15.355Z,973.50
2017-12-29T11:04:15.349Z,973.57
2017-12-29T11:05:15.377Z,973.53
2017-12-29T11:06:15.379Z,973.51
2017-12-29T11:07:15.355Z,973.51
2017-12-29T11:08:15.319Z,973.53
2017-12-29T11:09:15.313Z,973.47
2017-12-29T11:10:15.306Z,973.54
2017-12-29T11:11:15.299Z,973.40
2017-12-29T11:12:15.286Z,973.43
2017-12-29T11:13:15.283Z,973.44
2017-12-29T11:14:15.277Z,973.41
2017-12-29T11:15:15.269Z,973.41
2017-12-29T11:16:15.262Z,973.37
2017-12-29T11:17:15.255Z,973.35
2017-12-29T11:18:15.249Z,973.29
2017-12-29T11:19:15.283Z,973.26
2017-12-29T11:20:15.232Z,973.26
2017-12-29T11:21:15.230Z,973.22
2017-12-29T11:22:15.214Z,973.22
2017-12-29T11:23:15.210Z,973.21
2017-12-29T11:24:15.196Z,973.31
2017-12-29T11:25:15.197Z,973.24
2017-12-29T11:26:15.190Z,973.24
2017-12-29T11:27:15.183Z,973.22
2017-12-29T11:28:15.172Z,973.28
2017-12-29T11:29:15.166Z,973.32
2017-12-29T11:30:15.191Z,973.30
2017-12-29T11:31:15.151Z,973.31
2017-12-29T11:32:15.144Z,973.29
2017-12-29T11:33:15.138Z,973.26
2017-12-29T11:34:15.137Z,973.24
2017-12-29T11:35:15.120Z,973.19
2017-12-29T11:36:15.129Z,973.23
2017-12-29T11:37:15.125Z,973.15
2017-12-29T11:38:15.099Z,973.19
2017-12-29T11:39:15.092Z,973.20
2017-12-29T11:40:15.085Z,973.15
2017-12-29T11:41:15.077Z,973.06
2017-12-29T11:42:15.075Z,973.11
2017-12-29T11:43:15.062Z,973.09
2017-12-29T11:44:15.050Z,973.03
2017-12-29T11:45:15.047Z,973.02
2017-12-29T11:46:15.043Z,973.07
2017-12-29T11:47:15.037Z,973.01
2017-12-29T11:48:15.024Z,973.10
2017-12-29T11:49:15.019Z,973.02
2017-12-29T11:50:15.010Z,973.04
2017-12-29T11:51:14.999Z,973.06
2017-12-29T11:52:14.997Z,973.08
2017-12-29T11:53:14.986Z,973.01
2017-12-29T11:54:14.982Z,972.98
2017-12-29T11:55:14.971Z,973.05
2017-12-29T11:56:14.966Z,973.01
2017-12-29T11:57:14.955Z,973.03
2017-12-29T11:58:14.944Z,972.97
2017-12-29T11:59:14.943Z,973.06
2017-12-29T12:00:14.933Z,973.02
2017-12-29T12:01:14.928Z,972.97
2017-12-29T12:02:14.926Z,972.98
2017-12-29T12:03:14.914Z,972.96
2017-12-29T12:04:14.899Z,972.91
2017-12-29T12:05:14.896Z,972.89
2017-12-29T12:06:14.889Z,972.89
2017-12-29T12:07:14.886Z,972.91
2017-12-29T12:08:14.876Z,972.90
2017-12-29T12:09:14.867Z,972.88
2017-12-29T12:10:14.862Z,972.88
2017-12-29T12:11:14.851Z,972.90
2017-12-29T12:12:14.845Z,972.90
2017-12-29T12:13:14.840Z,972.92
2017-12-29T12:14:14.830Z,972.87
2017-12-29T12:15:14.825Z,972.87
2017-12-29T12:16:14.818Z,972.87
2017-12-29T12:17:14.828Z,972.86
2017-12-29T12:18:14.807Z,972.79
2017-12-29T12:19:14.794Z,972.63
2017-12-29T12:20:14.800Z,972.81
2017-12-29T12:21:14.780Z,972.79
2017-12-29T12:22:14.775Z,972.86
2017-12-29T12:23:14.779Z,972.87
2017-12-29T12:24:14.759Z,972.79
2017-12-29T12:25:14.765Z,972.80
2017-12-29T12:26:14.746Z,972.80
2017-12-29T12:27:14.742Z,972.88
2017-12-29T12:28:14.729Z,972.85